sensor_id;sensor_type;location;lat;lon;timestamp;temperature;humidity
45803;DHT22;31504;51.716;9.184;2022-11-02T00:00:41;20.40;54.30
45803;DHT22;31504;51.716;9.184;2022-11-02T00:03:43;20.30;54.20
45803;DHT22;31504;51.716;9.184;2022-11-02T00:06:43;20.40;54.30
45803;DHT22;31504;51.716;9.184;2022-11-02T00:09:44;20.30;54.10
45803;DHT22;31504;51.716;9.184;2022-11-02T00:12:45;20.40;54.20
45803;DHT22;31504;51.716;9.184;2022-11-02T00:15:46;20.40;54.20
45803;DHT22;31504;51.716;9.184;2022-11-02T00:18:50;20.30;54.20
45803;DHT22;31504;51.716;9.184;2022-11-02T00:21:51;20.40;54.20
45803;DHT22;31504;51.716;9.184;2022-11-02T00:24:52;20.30;54.20
45803;DHT22;31504;51.716;9.184;2022-11-02T00:27:53;20.40;54.20
45803;DHT22;31504;51.716;9.184;2022-11-02T00:30:53;20.40;54.20
45803;DHT22;31504;51.716;9.184;2022-11-02T00:33:54;20.40;54.20
45803;DHT22;31504;51.716;9.184;2022-11-02T00:36:55;20.40;54.40
45803;DHT22;31504;51.716;9.184;2022-11-02T00:39:55;20.40;54.30
45803;DHT22;31504;51.716;9.184;2022-11-02T00:42:56;20.40;54.30
45803;DHT22;31504;51.716;9.184;2022-11-02T00:45:56;20.40;54.40
45803;DHT22;31504;51.716;9.184;2022-11-02T00:48:57;20.40;54.40
45803;DHT22;31504;51.716;9.184;2022-11-02T00:51:57;20.40;54.40
45803;DHT22;31504;51.716;9.184;2022-11-02T00:54:58;20.40;54.50
45803;DHT22;31504;51.716;9.184;2022-11-02T00:57:58;20.30;54.40
45803;DHT22;31504;51.716;9.184;2022-11-02T01:01:03;20.30;54.90
45803;DHT22;31504;51.716;9.184;2022-11-02T01:04:04;20.30;54.30
45803;DHT22;31504;51.716;9.184;2022-11-02T01:07:05;20.30;54.30
45803;DHT22;31504;51.716;9.184;2022-11-02T01:10:07;20.30;54.70
45803;DHT22;31504;51.716;9.184;2022-11-02T01:13:08;20.30;54.80
45803;DHT22;31504;51.716;9.184;2022-11-02T01:16:09;20.30;54.70
45803;DHT22;31504;51.716;9.184;2022-11-02T01:19:10;20.30;54.40
45803;DHT22;31504;51.716;9.184;2022-11-02T01:22:10;20.30;54.60
45803;DHT22;31504;51.716;9.184;2022-11-02T01:25:11;20.30;54.40
45803;DHT22;31504;51.716;9.184;2022-11-02T01:28:12;20.20;54.60
45803;DHT22;31504;51.716;9.184;2022-11-02T01:31:12;20.30;54.70
45803;DHT22;31504;51.716;9.184;2022-11-02T01:34:13;20.30;55.40
45803;DHT22;31504;51.716;9.184;2022-11-02T01:37:14;20.20;55.30
45803;DHT22;31504;51.716;9.184;2022-11-02T01:40:14;20.30;54.90
45803;DHT22;31504;51.716;9.184;2022-11-02T01:49:38;20.30;54.60
45803;DHT22;31504;51.716;9.184;2022-11-02T01:52:40;20.30;54.80
45803;DHT22;31504;51.716;9.184;2022-11-02T01:55:40;20.30;55.10
45803;DHT22;31504;51.716;9.184;2022-11-02T01:58:45;20.30;54.60
45803;DHT22;31504;51.716;9.184;2022-11-02T02:01:47;20.30;54.50
45803;DHT22;31504;51.716;9.184;2022-11-02T02:04:51;20.30;54.50
45803;DHT22;31504;51.716;9.184;2022-11-02T02:07:53;20.20;54.60
45803;DHT22;31504;51.716;9.184;2022-11-02T02:10:56;20.30;55.00
45803;DHT22;31504;51.716;9.184;2022-11-02T02:14:00;20.20;54.80
45803;DHT22;31504;51.716;9.184;2022-11-02T02:17:09;20.30;54.80
45803;DHT22;31504;51.716;9.184;2022-11-02T02:24:17;20.20;54.80
45803;DHT22;31504;51.716;9.184;2022-11-02T02:28:02;20.30;54.80
45803;DHT22;31504;51.716;9.184;2022-11-02T02:31:28;20.30;54.80
45803;DHT22;31504;51.716;9.184;2022-11-02T02:37:56;20.30;54.80
45803;DHT22;31504;51.716;9.184;2022-11-02T02:44:15;20.30;54.50
45803;DHT22;31504;51.716;9.184;2022-11-02T02:47:17;20.30;54.70
45803;DHT22;31504;51.716;9.184;2022-11-02T02:50:24;20.30;54.50
45803;DHT22;31504;51.716;9.184;2022-11-02T02:53:31;20.30;54.50
45803;DHT22;31504;51.716;9.184;2022-11-02T02:56:43;20.30;54.60
45803;DHT22;31504;51.716;9.184;2022-11-02T02:59:47;20.30;54.70
45803;DHT22;31504;51.716;9.184;2022-11-02T03:02:48;20.30;54.80
45803;DHT22;31504;51.716;9.184;2022-11-02T03:06:23;20.30;54.60
45803;DHT22;31504;51.716;9.184;2022-11-02T03:09:50;20.30;54.70
45803;DHT22;31504;51.716;9.184;2022-11-02T03:16:03;20.30;54.60
45803;DHT22;31504;51.716;9.184;2022-11-02T03:19:22;20.30;54.50
45803;DHT22;31504;51.716;9.184;2022-11-02T03:22:47;20.30;54.50
45803;DHT22;31504;51.716;9.184;2022-11-02T03:29:31;20.30;54.70
45803;DHT22;31504;51.716;9.184;2022-11-02T03:33:08;20.40;54.70
45803;DHT22;31504;51.716;9.184;2022-11-02T03:36:20;20.30;54.60
45803;DHT22;31504;51.716;9.184;2022-11-02T03:39:48;20.40;54.60
45803;DHT22;31504;51.716;9.184;2022-11-02T03:42:50;20.30;54.60
45803;DHT22;31504;51.716;9.184;2022-11-02T03:45:54;20.30;54.60
45803;DHT22;31504;51.716;9.184;2022-11-02T03:48:59;20.30;54.60
45803;DHT22;31504;51.716;9.184;2022-11-02T03:52:04;20.30;54.70
45803;DHT22;31504;51.716;9.184;2022-11-02T03:55:21;20.30;54.60
45803;DHT22;31504;51.716;9.184;2022-11-02T03:58:23;20.30;54.50
45803;DHT22;31504;51.716;9.184;2022-11-02T04:01:25;20.30;54.50
45803;DHT22;31504;51.716;9.184;2022-11-02T04:04:26;20.40;54.60
45803;DHT22;31504;51.716;9.184;2022-11-02T04:07:31;20.30;54.60
45803;DHT22;31504;51.716;9.184;2022-11-02T04:10:52;20.40;54.60
45803;DHT22;31504;51.716;9.184;2022-11-02T04:14:11;20.40;54.60
45803;DHT22;31504;51.716;9.184;2022-11-02T04:17:30;20.40;54.70
45803;DHT22;31504;51.716;9.184;2022-11-02T04:20:50;20.40;54.70
45803;DHT22;31504;51.716;9.184;2022-11-02T04:23:50;20.40;54.70
45803;DHT22;31504;51.716;9.184;2022-11-02T04:27:09;20.40;54.70
45803;DHT22;31504;51.716;9.184;2022-11-02T04:30:10;20.40;54.70
45803;DHT22;31504;51.716;9.184;2022-11-02T04:33:11;20.40;54.70
45803;DHT22;31504;51.716;9.184;2022-11-02T04:36:31;20.40;54.70
45803;DHT22;31504;51.716;9.184;2022-11-02T04:39:31;20.40;54.70
45803;DHT22;31504;51.716;9.184;2022-11-02T04:42:35;20.40;54.70
45803;DHT22;31504;51.716;9.184;2022-11-02T04:45:35;20.30;54.70
45803;DHT22;31504;51.716;9.184;2022-11-02T04:48:36;20.40;54.70
45803;DHT22;31504;51.716;9.184;2022-11-02T04:51:37;20.30;54.70
45803;DHT22;31504;51.716;9.184;2022-11-02T04:54:39;20.30;54.70
45803;DHT22;31504;51.716;9.184;2022-11-02T04:57:43;20.30;54.90
45803;DHT22;31504;51.716;9.184;2022-11-02T05:00:44;20.30;54.60
45803;DHT22;31504;51.716;9.184;2022-11-02T05:03:49;20.30;54.50
45803;DHT22;31504;51.716;9.184;2022-11-02T05:06:49;20.30;54.70
45803;DHT22;31504;51.716;9.184;2022-11-02T05:09:50;20.30;54.60
45803;DHT22;31504;51.716;9.184;2022-11-02T05:12:57;20.30;54.60
45803;DHT22;31504;51.716;9.184;2022-11-02T05:15:59;20.30;54.50
45803;DHT22;31504;51.716;9.184;2022-11-02T05:18:59;20.30;54.50
45803;DHT22;31504;51.716;9.184;2022-11-02T05:22:00;20.30;54.50
45803;DHT22;31504;51.716;9.184;2022-11-02T05:25:00;20.30;54.60
45803;DHT22;31504;51.716;9.184;2022-11-02T05:28:01;20.30;54.50
45803;DHT22;31504;51.716;9.184;2022-11-02T05:31:02;20.30;54.50
45803;DHT22;31504;51.716;9.184;2022-11-02T05:34:03;20.30;54.40
45803;DHT22;31504;51.716;9.184;2022-11-02T05:37:03;20.30;54.40
45803;DHT22;31504;51.716;9.184;2022-11-02T05:40:05;20.30;54.50
45803;DHT22;31504;51.716;9.184;2022-11-02T05:43:07;20.30;54.50
45803;DHT22;31504;51.716;9.184;2022-11-02T05:46:08;20.30;54.60
45803;DHT22;31504;51.716;9.184;2022-11-02T05:49:08;20.30;54.50
45803;DHT22;31504;51.716;9.184;2022-11-02T05:52:09;20.30;54.60
45803;DHT22;31504;51.716;9.184;2022-11-02T05:55:09;20.30;54.60
45803;DHT22;31504;51.716;9.184;2022-11-02T05:58:10;20.30;54.50
45803;DHT22;31504;51.716;9.184;2022-11-02T06:01:11;20.30;54.50
45803;DHT22;31504;51.716;9.184;2022-11-02T06:04:11;20.30;54.50
45803;DHT22;31504;51.716;9.184;2022-11-02T06:07:12;20.30;54.50
45803;DHT22;31504;51.716;9.184;2022-11-02T06:10:12;20.30;54.60
45803;DHT22;31504;51.716;9.184;2022-11-02T06:13:13;20.30;54.50
45803;DHT22;31504;51.716;9.184;2022-11-02T06:16:13;20.30;54.60
45803;DHT22;31504;51.716;9.184;2022-11-02T06:19:14;20.30;54.60
45803;DHT22;31504;51.716;9.184;2022-11-02T06:22:15;20.30;54.60
45803;DHT22;31504;51.716;9.184;2022-11-02T06:25:16;20.30;54.60
45803;DHT22;31504;51.716;9.184;2022-11-02T06:28:16;20.30;54.70
45803;DHT22;31504;51.716;9.184;2022-11-02T06:31:17;20.30;54.60
45803;DHT22;31504;51.716;9.184;2022-11-02T06:34:18;20.30;54.60
45803;DHT22;31504;51.716;9.184;2022-11-02T06:37:18;20.30;54.60
45803;DHT22;31504;51.716;9.184;2022-11-02T06:40:19;20.30;54.50
45803;DHT22;31504;51.716;9.184;2022-11-02T06:43:19;20.30;54.60
45803;DHT22;31504;51.716;9.184;2022-11-02T06:46:20;20.30;54.60
45803;DHT22;31504;51.716;9.184;2022-11-02T06:49:21;20.30;54.60
45803;DHT22;31504;51.716;9.184;2022-11-02T06:52:22;20.30;54.60
45803;DHT22;31504;51.716;9.184;2022-11-02T06:55:23;20.30;54.60
45803;DHT22;31504;51.716;9.184;2022-11-02T06:58:24;20.30;54.50
45803;DHT22;31504;51.716;9.184;2022-11-02T07:01:25;20.30;54.60
45803;DHT22;31504;51.716;9.184;2022-11-02T07:04:25;20.30;54.50
45803;DHT22;31504;51.716;9.184;2022-11-02T07:07:26;20.30;54.70
45803;DHT22;31504;51.716;9.184;2022-11-02T07:10:27;20.30;54.80
45803;DHT22;31504;51.716;9.184;2022-11-02T07:13:28;20.30;54.90
45803;DHT22;31504;51.716;9.184;2022-11-02T07:16:28;20.30;54.90
45803;DHT22;31504;51.716;9.184;2022-11-02T07:19:29;20.40;55.00
45803;DHT22;31504;51.716;9.184;2022-11-02T07:22:29;20.30;55.00
45803;DHT22;31504;51.716;9.184;2022-11-02T07:25:31;20.30;55.00
45803;DHT22;31504;51.716;9.184;2022-11-02T07:28:32;20.40;55.10
45803;DHT22;31504;51.716;9.184;2022-11-02T07:31:32;20.40;55.20
45803;DHT22;31504;51.716;9.184;2022-11-02T07:34:33;20.40;55.20
45803;DHT22;31504;51.716;9.184;2022-11-02T07:37:34;20.40;55.20
45803;DHT22;31504;51.716;9.184;2022-11-02T07:40:35;20.30;55.10
45803;DHT22;31504;51.716;9.184;2022-11-02T07:43:35;20.30;55.20
45803;DHT22;31504;51.716;9.184;2022-11-02T07:46:36;20.40;55.30
45803;DHT22;31504;51.716;9.184;2022-11-02T07:49:36;20.40;55.30
45803;DHT22;31504;51.716;9.184;2022-11-02T07:52:51;20.30;55.20
45803;DHT22;31504;51.716;9.184;2022-11-02T07:55:52;20.30;55.30
45803;DHT22;31504;51.716;9.184;2022-11-02T07:58:52;20.40;55.40
45803;DHT22;31504;51.716;9.184;2022-11-02T08:01:53;20.40;55.40
45803;DHT22;31504;51.716;9.184;2022-11-02T08:04:53;20.40;55.40
45803;DHT22;31504;51.716;9.184;2022-11-02T08:08:05;20.40;55.40
45803;DHT22;31504;51.716;9.184;2022-11-02T08:11:07;20.40;55.40
45803;DHT22;31504;51.716;9.184;2022-11-02T08:14:08;20.40;55.40
45803;DHT22;31504;51.716;9.184;2022-11-02T08:17:08;20.40;55.40
45803;DHT22;31504;51.716;9.184;2022-11-02T08:20:09;20.40;55.80
45803;DHT22;31504;51.716;9.184;2022-11-02T08:23:13;20.40;55.40
45803;DHT22;31504;51.716;9.184;2022-11-02T08:26:14;20.40;55.50
45803;DHT22;31504;51.716;9.184;2022-11-02T08:29:14;20.40;55.50
45803;DHT22;31504;51.716;9.184;2022-11-02T08:32:15;20.40;55.60
45803;DHT22;31504;51.716;9.184;2022-11-02T08:35:15;20.30;55.60
45803;DHT22;31504;51.716;9.184;2022-11-02T08:38:16;20.20;55.80
45803;DHT22;31504;51.716;9.184;2022-11-02T08:41:17;20.30;55.70
45803;DHT22;31504;51.716;9.184;2022-11-02T08:44:18;20.30;55.70
45803;DHT22;31504;51.716;9.184;2022-11-02T08:47:19;20.30;55.60
45803;DHT22;31504;51.716;9.184;2022-11-02T08:50:20;20.30;55.50
45803;DHT22;31504;51.716;9.184;2022-11-02T08:53:20;20.20;55.70
45803;DHT22;31504;51.716;9.184;2022-11-02T08:56:21;20.20;55.70
45803;DHT22;31504;51.716;9.184;2022-11-02T08:59:24;20.10;55.70
45803;DHT22;31504;51.716;9.184;2022-11-02T09:02:24;20.20;56.10
45803;DHT22;31504;51.716;9.184;2022-11-02T09:05:26;20.20;55.50
45803;DHT22;31504;51.716;9.184;2022-11-02T09:08:27;20.20;55.40
45803;DHT22;31504;51.716;9.184;2022-11-02T09:11:28;20.20;55.70
45803;DHT22;31504;51.716;9.184;2022-11-02T09:14:29;20.20;55.40
45803;DHT22;31504;51.716;9.184;2022-11-02T09:17:29;20.20;55.40
45803;DHT22;31504;51.716;9.184;2022-11-02T09:20:31;20.20;55.20
45803;DHT22;31504;51.716;9.184;2022-11-02T09:23:32;20.20;55.30
45803;DHT22;31504;51.716;9.184;2022-11-02T09:26:36;20.10;54.90
45803;DHT22;31504;51.716;9.184;2022-11-02T09:29:37;20.20;54.70
45803;DHT22;31504;51.716;9.184;2022-11-02T09:32:38;20.20;54.80
45803;DHT22;31504;51.716;9.184;2022-11-02T09:35:42;20.20;55.10
45803;DHT22;31504;51.716;9.184;2022-11-02T09:38:42;20.20;54.60
45803;DHT22;31504;51.716;9.184;2022-11-02T09:41:55;20.10;54.20
45803;DHT22;31504;51.716;9.184;2022-11-02T09:45:05;20.10;54.80
45803;DHT22;31504;51.716;9.184;2022-11-02T09:48:14;20.00;54.30
45803;DHT22;31504;51.716;9.184;2022-11-02T09:51:20;20.00;54.30
45803;DHT22;31504;51.716;9.184;2022-11-02T09:54:24;20.10;55.10
45803;DHT22;31504;51.716;9.184;2022-11-02T09:57:29;20.00;54.30
45803;DHT22;31504;51.716;9.184;2022-11-02T10:00:34;20.10;53.70
45803;DHT22;31504;51.716;9.184;2022-11-02T10:03:52;20.00;53.60
45803;DHT22;31504;51.716;9.184;2022-11-02T10:07:28;20.10;53.40
45803;DHT22;31504;51.716;9.184;2022-11-02T10:17:16;20.10;53.30
45803;DHT22;31504;51.716;9.184;2022-11-02T10:20:47;20.10;52.80
45803;DHT22;31504;51.716;9.184;2022-11-02T10:23:51;20.00;52.60
45803;DHT22;31504;51.716;9.184;2022-11-02T10:26:59;19.90;54.50
45803;DHT22;31504;51.716;9.184;2022-11-02T10:30:13;19.90;54.60
45803;DHT22;31504;51.716;9.184;2022-11-02T10:33:17;19.90;53.10
45803;DHT22;31504;51.716;9.184;2022-11-02T10:36:37;19.90;53.60
45803;DHT22;31504;51.716;9.184;2022-11-02T10:43:52;20.00;53.70
45803;DHT22;31504;51.716;9.184;2022-11-02T10:50:31;20.00;52.80
45803;DHT22;31504;51.716;9.184;2022-11-02T10:53:39;20.10;53.10
45803;DHT22;31504;51.716;9.184;2022-11-02T10:56:42;20.10;53.00
45803;DHT22;31504;51.716;9.184;2022-11-02T10:59:43;20.10;52.60
45803;DHT22;31504;51.716;9.184;2022-11-02T11:02:43;20.00;53.40
45803;DHT22;31504;51.716;9.184;2022-11-02T11:05:54;20.10;53.30
45803;DHT22;31504;51.716;9.184;2022-11-02T11:09:14;20.10;53.20
45803;DHT22;31504;51.716;9.184;2022-11-02T11:12:25;20.10;53.30
45803;DHT22;31504;51.716;9.184;2022-11-02T11:15:31;20.20;53.30
45803;DHT22;31504;51.716;9.184;2022-11-02T11:18:32;20.20;53.10
45803;DHT22;31504;51.716;9.184;2022-11-02T11:21:38;20.10;52.30
45803;DHT22;31504;51.716;9.184;2022-11-02T11:24:39;20.10;52.10
45803;DHT22;31504;51.716;9.184;2022-11-02T11:27:54;20.10;51.90
45803;DHT22;31504;51.716;9.184;2022-11-02T11:31:05;20.10;50.60
45803;DHT22;31504;51.716;9.184;2022-11-02T11:34:23;20.10;50.60
45803;DHT22;31504;51.716;9.184;2022-11-02T11:37:25;20.10;50.00
45803;DHT22;31504;51.716;9.184;2022-11-02T11:40:29;20.10;49.60
45803;DHT22;31504;51.716;9.184;2022-11-02T11:43:34;20.00;49.40
45803;DHT22;31504;51.716;9.184;2022-11-02T11:49:46;20.00;49.80
45803;DHT22;31504;51.716;9.184;2022-11-02T11:53:23;20.00;49.40
45803;DHT22;31504;51.716;9.184;2022-11-02T11:56:26;20.00;48.80
45803;DHT22;31504;51.716;9.184;2022-11-02T11:59:45;20.00;49.30
45803;DHT22;31504;51.716;9.184;2022-11-02T12:03:04;19.90;48.50
45803;DHT22;31504;51.716;9.184;2022-11-02T12:10:02;20.00;49.00
45803;DHT22;31504;51.716;9.184;2022-11-02T12:13:33;20.00;49.20
45803;DHT22;31504;51.716;9.184;2022-11-02T12:20:39;20.10;49.80
45803;DHT22;31504;51.716;9.184;2022-11-02T12:27:06;20.10;49.90
45803;DHT22;31504;51.716;9.184;2022-11-02T12:30:16;20.00;49.90
45803;DHT22;31504;51.716;9.184;2022-11-02T12:36:57;20.10;50.30
45803;DHT22;31504;51.716;9.184;2022-11-02T12:49:55;20.10;50.80
45803;DHT22;31504;51.716;9.184;2022-11-02T12:56:18;20.20;51.00
45803;DHT22;31504;51.716;9.184;2022-11-02T12:59:29;20.20;51.20
45803;DHT22;31504;51.716;9.184;2022-11-02T13:05:37;20.20;51.40
45803;DHT22;31504;51.716;9.184;2022-11-02T13:08:53;20.20;51.30
45803;DHT22;31504;51.716;9.184;2022-11-02T13:12:09;20.20;52.10
45803;DHT22;31504;51.716;9.184;2022-11-02T13:15:14;20.20;51.60
45803;DHT22;31504;51.716;9.184;2022-11-02T13:18:20;20.20;51.50
45803;DHT22;31504;51.716;9.184;2022-11-02T13:21:35;20.20;51.60
45803;DHT22;31504;51.716;9.184;2022-11-02T13:24:41;20.20;51.60
45803;DHT22;31504;51.716;9.184;2022-11-02T13:27:52;20.10;51.20
45803;DHT22;31504;51.716;9.184;2022-11-02T13:30:54;20.10;51.10
45803;DHT22;31504;51.716;9.184;2022-11-02T13:33:56;20.10;50.30
45803;DHT22;31504;51.716;9.184;2022-11-02T13:37:08;20.10;49.80
45803;DHT22;31504;51.716;9.184;2022-11-02T13:40:26;20.10;49.40
45803;DHT22;31504;51.716;9.184;2022-11-02T13:43:47;20.10;48.80
45803;DHT22;31504;51.716;9.184;2022-11-02T13:50:22;20.00;47.60
45803;DHT22;31504;51.716;9.184;2022-11-02T13:53:32;20.00;47.80
45803;DHT22;31504;51.716;9.184;2022-11-02T13:56:35;20.00;47.10
45803;DHT22;31504;51.716;9.184;2022-11-02T13:59:36;20.00;47.40
45803;DHT22;31504;51.716;9.184;2022-11-02T14:02:40;20.00;47.50
45803;DHT22;31504;51.716;9.184;2022-11-02T14:06:03;20.10;47.50
45803;DHT22;31504;51.716;9.184;2022-11-02T14:09:09;20.10;47.90
45803;DHT22;31504;51.716;9.184;2022-11-02T14:15:59;20.10;48.60
45803;DHT22;31504;51.716;9.184;2022-11-02T14:22:25;20.20;49.20
45803;DHT22;31504;51.716;9.184;2022-11-02T14:25:51;20.20;49.30
45803;DHT22;31504;51.716;9.184;2022-11-02T14:28:52;20.20;49.50
45803;DHT22;31504;51.716;9.184;2022-11-02T14:31:56;20.10;49.40
45803;DHT22;31504;51.716;9.184;2022-11-02T14:35:34;20.20;49.40
45803;DHT22;31504;51.716;9.184;2022-11-02T14:39:04;20.10;49.30
45803;DHT22;31504;51.716;9.184;2022-11-02T14:42:18;20.10;48.90
45803;DHT22;31504;51.716;9.184;2022-11-02T14:48:49;20.10;48.70
45803;DHT22;31504;51.716;9.184;2022-11-02T14:52:04;20.10;48.10
45803;DHT22;31504;51.716;9.184;2022-11-02T14:58:19;20.10;48.20
45803;DHT22;31504;51.716;9.184;2022-11-02T15:01:22;20.10;48.50
45803;DHT22;31504;51.716;9.184;2022-11-02T15:04:24;20.10;48.50
45803;DHT22;31504;51.716;9.184;2022-11-02T15:07:35;20.20;48.80
45803;DHT22;31504;51.716;9.184;2022-11-02T15:10:42;20.20;48.90
45803;DHT22;31504;51.716;9.184;2022-11-02T15:13:46;20.30;49.20
45803;DHT22;31504;51.716;9.184;2022-11-02T15:16:47;20.20;49.20
45803;DHT22;31504;51.716;9.184;2022-11-02T15:23:18;20.30;49.60
45803;DHT22;31504;51.716;9.184;2022-11-02T15:26:47;20.30;49.80
45803;DHT22;31504;51.716;9.184;2022-11-02T15:29:48;20.30;50.00
45803;DHT22;31504;51.716;9.184;2022-11-02T15:32:55;20.30;50.10
45803;DHT22;31504;51.716;9.184;2022-11-02T15:35:58;20.30;50.30
45803;DHT22;31504;51.716;9.184;2022-11-02T15:39:02;20.30;50.40
45803;DHT22;31504;51.716;9.184;2022-11-02T15:42:25;20.30;50.40
45803;DHT22;31504;51.716;9.184;2022-11-02T15:48:44;20.30;50.70
45803;DHT22;31504;51.716;9.184;2022-11-02T15:51:55;20.30;50.80
45803;DHT22;31504;51.716;9.184;2022-11-02T16:01:41;20.30;51.00
45803;DHT22;31504;51.716;9.184;2022-11-02T16:04:47;20.30;51.20
45803;DHT22;31504;51.716;9.184;2022-11-02T16:07:51;20.30;51.30
45803;DHT22;31504;51.716;9.184;2022-11-02T16:11:03;20.30;51.30
45803;DHT22;31504;51.716;9.184;2022-11-02T16:14:15;20.30;51.90
45803;DHT22;31504;51.716;9.184;2022-11-02T16:17:27;20.30;51.40
45803;DHT22;31504;51.716;9.184;2022-11-02T16:20:30;20.30;51.40
45803;DHT22;31504;51.716;9.184;2022-11-02T16:23:38;20.30;52.00
45803;DHT22;31504;51.716;9.184;2022-11-02T16:26:41;20.30;51.50
45803;DHT22;31504;51.716;9.184;2022-11-02T16:29:44;20.30;51.60
45803;DHT22;31504;51.716;9.184;2022-11-02T16:32:45;20.30;51.60
45803;DHT22;31504;51.716;9.184;2022-11-02T16:35:47;20.30;51.70
45803;DHT22;31504;51.716;9.184;2022-11-02T16:39:05;20.30;51.70
45803;DHT22;31504;51.716;9.184;2022-11-02T16:42:11;20.30;51.80
45803;DHT22;31504;51.716;9.184;2022-11-02T16:48:33;20.30;51.90
45803;DHT22;31504;51.716;9.184;2022-11-02T16:51:36;20.30;52.00
45803;DHT22;31504;51.716;9.184;2022-11-02T16:54:39;20.30;52.00
45803;DHT22;31504;51.716;9.184;2022-11-02T16:57:44;20.30;52.00
45803;DHT22;31504;51.716;9.184;2022-11-02T17:01:16;20.40;52.10
45803;DHT22;31504;51.716;9.184;2022-11-02T17:04:26;20.30;52.10
45803;DHT22;31504;51.716;9.184;2022-11-02T17:11:05;20.40;52.20
45803;DHT22;31504;51.716;9.184;2022-11-02T17:14:09;20.30;52.30
45803;DHT22;31504;51.716;9.184;2022-11-02T17:17:30;20.40;52.30
45803;DHT22;31504;51.716;9.184;2022-11-02T17:20:31;20.40;52.30
45803;DHT22;31504;51.716;9.184;2022-11-02T17:23:34;20.40;52.40
45803;DHT22;31504;51.716;9.184;2022-11-02T17:26:36;20.40;52.50
45803;DHT22;31504;51.716;9.184;2022-11-02T17:29:38;20.40;52.60
45803;DHT22;31504;51.716;9.184;2022-11-02T17:32:41;20.40;52.60
45803;DHT22;31504;51.716;9.184;2022-11-02T17:35:47;20.30;52.70
45803;DHT22;31504;51.716;9.184;2022-11-02T17:38:48;20.30;52.70
45803;DHT22;31504;51.716;9.184;2022-11-02T17:41:52;20.30;52.70
45803;DHT22;31504;51.716;9.184;2022-11-02T17:45:31;20.30;52.70
45803;DHT22;31504;51.716;9.184;2022-11-02T17:48:32;20.40;52.70
45803;DHT22;31504;51.716;9.184;2022-11-02T17:51:33;20.30;52.70
45803;DHT22;31504;51.716;9.184;2022-11-02T17:54:34;20.30;52.70
45803;DHT22;31504;51.716;9.184;2022-11-02T17:57:35;20.40;52.60
45803;DHT22;31504;51.716;9.184;2022-11-02T18:00:36;20.40;52.50
45803;DHT22;31504;51.716;9.184;2022-11-02T18:03:36;20.30;52.40
45803;DHT22;31504;51.716;9.184;2022-11-02T18:06:37;20.30;52.30
45803;DHT22;31504;51.716;9.184;2022-11-02T18:09:40;20.30;52.20
45803;DHT22;31504;51.716;9.184;2022-11-02T18:12:40;20.40;52.30
45803;DHT22;31504;51.716;9.184;2022-11-02T18:15:44;20.40;52.30
45803;DHT22;31504;51.716;9.184;2022-11-02T18:18:44;20.40;52.30
45803;DHT22;31504;51.716;9.184;2022-11-02T18:21:45;20.40;52.40
45803;DHT22;31504;51.716;9.184;2022-11-02T18:24:45;20.40;52.50
45803;DHT22;31504;51.716;9.184;2022-11-02T18:27:46;20.40;52.50
45803;DHT22;31504;51.716;9.184;2022-11-02T18:30:47;20.40;52.60
45803;DHT22;31504;51.716;9.184;2022-11-02T18:33:47;20.40;52.80
45803;DHT22;31504;51.716;9.184;2022-11-02T18:36:51;20.40;52.90
45803;DHT22;31504;51.716;9.184;2022-11-02T18:39:52;20.40;52.90
45803;DHT22;31504;51.716;9.184;2022-11-02T18:42:52;20.40;52.90
45803;DHT22;31504;51.716;9.184;2022-11-02T18:45:53;20.40;53.00
45803;DHT22;31504;51.716;9.184;2022-11-02T18:48:54;20.40;53.10
45803;DHT22;31504;51.716;9.184;2022-11-02T18:51:55;20.40;53.20
45803;DHT22;31504;51.716;9.184;2022-11-02T18:54:55;20.40;53.30
45803;DHT22;31504;51.716;9.184;2022-11-02T18:57:56;20.40;53.30
45803;DHT22;31504;51.716;9.184;2022-11-02T19:01:07;20.40;53.30
45803;DHT22;31504;51.716;9.184;2022-11-02T19:04:09;20.40;53.40
45803;DHT22;31504;51.716;9.184;2022-11-02T19:07:10;20.40;53.40
45803;DHT22;31504;51.716;9.184;2022-11-02T19:10:30;20.50;53.50
45803;DHT22;31504;51.716;9.184;2022-11-02T19:13:30;20.40;53.40
45803;DHT22;31504;51.716;9.184;2022-11-02T19:16:31;20.40;53.30
45803;DHT22;31504;51.716;9.184;2022-11-02T19:19:32;20.50;53.50
45803;DHT22;31504;51.716;9.184;2022-11-02T19:22:33;20.50;53.40
45803;DHT22;31504;51.716;9.184;2022-11-02T19:25:33;20.40;53.40
45803;DHT22;31504;51.716;9.184;2022-11-02T19:28:34;20.40;53.40
45803;DHT22;31504;51.716;9.184;2022-11-02T19:31:34;20.40;53.50
45803;DHT22;31504;51.716;9.184;2022-11-02T19:34:35;20.40;53.50
45803;DHT22;31504;51.716;9.184;2022-11-02T19:37:37;20.40;53.50
45803;DHT22;31504;51.716;9.184;2022-11-02T19:40:37;20.40;53.60
45803;DHT22;31504;51.716;9.184;2022-11-02T19:43:39;20.40;53.70
45803;DHT22;31504;51.716;9.184;2022-11-02T19:46:40;20.50;53.80
45803;DHT22;31504;51.716;9.184;2022-11-02T19:49:41;20.40;53.80
45803;DHT22;31504;51.716;9.184;2022-11-02T19:52:41;20.40;53.90
45803;DHT22;31504;51.716;9.184;2022-11-02T19:55:50;20.40;53.90
45803;DHT22;31504;51.716;9.184;2022-11-02T19:58:51;20.40;53.80
45803;DHT22;31504;51.716;9.184;2022-11-02T20:01:51;20.40;54.40
45803;DHT22;31504;51.716;9.184;2022-11-02T20:04:52;20.40;54.50
45803;DHT22;31504;51.716;9.184;2022-11-02T20:07:52;20.40;53.90
45803;DHT22;31504;51.716;9.184;2022-11-02T20:11:08;20.40;54.00
45803;DHT22;31504;51.716;9.184;2022-11-02T20:14:09;20.40;54.00
45803;DHT22;31504;51.716;9.184;2022-11-02T20:17:09;20.40;54.10
45803;DHT22;31504;51.716;9.184;2022-11-02T20:20:10;20.40;54.10
45803;DHT22;31504;51.716;9.184;2022-11-02T20:23:11;20.40;54.10
45803;DHT22;31504;51.716;9.184;2022-11-02T20:26:17;20.40;54.20
45803;DHT22;31504;51.716;9.184;2022-11-02T20:29:18;20.40;54.40
45803;DHT22;31504;51.716;9.184;2022-11-02T20:32:18;20.40;54.60
45803;DHT22;31504;51.716;9.184;2022-11-02T20:35:21;20.40;54.60
45803;DHT22;31504;51.716;9.184;2022-11-02T20:38:24;20.40;54.50
45803;DHT22;31504;51.716;9.184;2022-11-02T20:41:25;20.40;54.70
45803;DHT22;31504;51.716;9.184;2022-11-02T20:44:26;20.40;54.70
45803;DHT22;31504;51.716;9.184;2022-11-02T20:47:26;20.40;54.70
45803;DHT22;31504;51.716;9.184;2022-11-02T20:50:27;20.40;54.70
45803;DHT22;31504;51.716;9.184;2022-11-02T20:53:28;20.40;54.80
45803;DHT22;31504;51.716;9.184;2022-11-02T20:56:28;20.40;54.80
45803;DHT22;31504;51.716;9.184;2022-11-02T20:59:29;20.40;54.90
45803;DHT22;31504;51.716;9.184;2022-11-02T21:02:29;20.40;55.00
45803;DHT22;31504;51.716;9.184;2022-11-02T21:05:30;20.40;55.00
45803;DHT22;31504;51.716;9.184;2022-11-02T21:08:31;20.40;54.90
45803;DHT22;31504;51.716;9.184;2022-11-02T21:11:31;20.40;54.90
45803;DHT22;31504;51.716;9.184;2022-11-02T21:14:50;20.40;54.90
45803;DHT22;31504;51.716;9.184;2022-11-02T21:17:51;20.30;54.80